sensor_id;sensor_type;location;lat;lon;timestamp;pressure;altitude;pressure_sealevel;temperature;humidity
19520;BME280;9904;52.246;20.898;2024-01-30T00:02:20;101838.09;;;0.52;95.01
19520;BME280;9904;52.246;20.898;2024-01-30T00:04:47;101842.31;;;0.59;94.93
19520;BME280;9904;52.246;20.898;2024-01-30T00:07:14;101838.22;;;0.47;95.11
19520;BME280;9904;52.246;20.898;2024-01-30T00:09:40;101834.41;;;0.56;94.94
19520;BME280;9904;52.246;20.898;2024-01-30T00:12:07;101827.47;;;0.51;94.68
19520;BME280;9904;52.246;20.898;2024-01-30T00:14:33;101825.66;;;0.53;94.92
19520;BME280;9904;52.246;20.898;2024-01-30T00:17:00;101831.91;;;0.50;95.15
19520;BME280;9904;52.246;20.898;2024-01-30T00:19:27;101828.31;;;0.53;94.64
19520;BME280;9904;52.246;20.898;2024-01-30T00:21:54;101832.81;;;0.51;94.72
19520;BME280;9904;52.246;20.898;2024-01-30T00:24:20;101827.63;;;0.46;95.01
19520;BME280;9904;52.246;20.898;2024-01-30T00:26:47;101831.69;;;0.58;94.53
19520;BME280;9904;52.246;20.898;2024-01-30T00:29:13;101828.34;;;0.51;94.70
19520;BME280;9904;52.246;20.898;2024-01-30T00:31:46;101833.94;;;0.43;94.90
19520;BME280;9904;52.246;20.898;2024-01-30T00:34:12;101839.56;;;0.61;94.54
19520;BME280;9904;52.246;20.898;2024-01-30T00:36:39;101837.94;;;0.57;94.33
19520;BME280;9904;52.246;20.898;2024-01-30T00:39:05;101829.94;;;0.57;94.54
19520;BME280;9904;52.246;20.898;2024-01-30T00:41:35;101834.22;;;0.62;94.04
19520;BME280;9904;52.246;20.898;2024-01-30T00:44:01;101830.03;;;0.54;94.01
19520;BME280;9904;52.246;20.898;2024-01-30T00:46:28;101838.09;;;0.52;94.22
19520;BME280;9904;52.246;20.898;2024-01-30T00:48:54;101836.59;;;0.43;94.44
19520;BME280;9904;52.246;20.898;2024-01-30T00:51:21;101833.03;;;0.43;94.57
19520;BME280;9904;52.246;20.898;2024-01-30T00:53:48;101838.91;;;0.54;94.47
19520;BME280;9904;52.246;20.898;2024-01-30T00:56:14;101831.91;;;0.52;94.20
19520;BME280;9904;52.246;20.898;2024-01-30T00:58:44;101835.53;;;0.49;94.31
19520;BME280;9904;52.246;20.898;2024-01-30T01:01:11;101824.97;;;0.46;94.66
19520;BME280;9904;52.246;20.898;2024-01-30T01:03:37;101830.97;;;0.53;94.10
19520;BME280;9904;52.246;20.898;2024-01-30T01:06:04;101832.94;;;0.46;94.32
19520;BME280;9904;52.246;20.898;2024-01-30T01:08:31;101824.69;;;0.54;93.78
19520;BME280;9904;52.246;20.898;2024-01-30T01:10:57;101832.03;;;0.47;93.97
19520;BME280;9904;52.246;20.898;2024-01-30T01:13:24;101834.91;;;0.41;94.47
19520;BME280;9904;52.246;20.898;2024-01-30T01:15:50;101834.84;;;0.42;94.32
19520;BME280;9904;52.246;20.898;2024-01-30T01:18:17;101832.13;;;0.44;94.18
19520;BME280;9904;52.246;20.898;2024-01-30T01:20:43;101829.31;;;0.49;94.46
19520;BME280;9904;52.246;20.898;2024-01-30T01:23:11;101817.59;;;0.54;93.77
19520;BME280;9904;52.246;20.898;2024-01-30T01:25:37;101824.69;;;0.54;93.77
19520;BME280;9904;52.246;20.898;2024-01-30T01:28:04;101825.47;;;0.57;93.68
19520;BME280;9904;52.246;20.898;2024-01-30T01:30:30;101819.22;;;0.58;93.48
19520;BME280;9904;52.246;20.898;2024-01-30T01:32:57;101811.34;;;0.55;93.34
19520;BME280;9904;52.246;20.898;2024-01-30T01:35:27;101814.38;;;0.44;93.50
19520;BME280;9904;52.246;20.898;2024-01-30T01:37:54;101808.91;;;0.47;93.83
19520;BME280;9904;52.246;20.898;2024-01-30T01:40:24;101812.63;;;0.43;93.89
19520;BME280;9904;52.246;20.898;2024-01-30T01:42:52;101809.75;;;0.50;93.86
19520;BME280;9904;52.246;20.898;2024-01-30T01:45:19;101800.09;;;0.45;94.01
19520;BME280;9904;52.246;20.898;2024-01-30T01:47:51;101798.41;;;0.43;93.82
19520;BME280;9904;52.246;20.898;2024-01-30T01:50:18;101799.28;;;0.43;94.02
19520;BME280;9904;52.246;20.898;2024-01-30T01:52:50;101786.81;;;0.44;93.95
19520;BME280;9904;52.246;20.898;2024-01-30T01:55:19;101788.72;;;0.40;94.17
19520;BME280;9904;52.246;20.898;2024-01-30T01:57:48;101793.19;;;0.40;93.97
19520;BME280;9904;52.246;20.898;2024-01-30T02:00:16;101793.38;;;0.34;94.33
19520;BME280;9904;52.246;20.898;2024-01-30T02:02:43;101781.91;;;0.31;94.29
19520;BME280;9904;52.246;20.898;2024-01-30T02:05:11;101781.91;;;0.31;94.33
19520;BME280;9904;52.246;20.898;2024-01-30T02:07:38;101780.28;;;0.26;94.45
19520;BME280;9904;52.246;20.898;2024-01-30T02:10:07;101787.16;;;0.33;94.56
19520;BME280;9904;52.246;20.898;2024-01-30T02:12:33;101776.66;;;0.28;94.44
19520;BME280;9904;52.246;20.898;2024-01-30T02:15:00;101774.09;;;0.25;94.73
19520;BME280;9904;52.246;20.898;2024-01-30T02:17:27;101766.19;;;0.22;94.54
19520;BME280;9904;52.246;20.898;2024-01-30T02:19:54;101766.13;;;0.24;94.86
19520;BME280;9904;52.246;20.898;2024-01-30T02:22:21;101773.50;;;0.15;95.13
19520;BME280;9904;52.246;20.898;2024-01-30T02:24:48;101768.09;;;0.19;94.94
19520;BME280;9904;52.246;20.898;2024-01-30T02:27:15;101766.34;;;0.18;94.50
19520;BME280;9904;52.246;20.898;2024-01-30T02:29:42;101775.88;;;0.25;94.44
19520;BME280;9904;52.246;20.898;2024-01-30T02:32:08;101779.44;;;0.25;94.23
19520;BME280;9904;52.246;20.898;2024-01-30T02:34:35;101771.38;;;0.27;94.50
19520;BME280;9904;52.246;20.898;2024-01-30T02:37:01;101782.03;;;0.27;94.57
19520;BME280;9904;52.246;20.898;2024-01-30T02:39:28;101775.94;;;0.23;94.41
19520;BME280;9904;52.246;20.898;2024-01-30T02:41:54;101772.31;;;0.26;94.26
19520;BME280;9904;52.246;20.898;2024-01-30T02:44:21;101782.19;;;0.22;94.35
19520;BME280;9904;52.246;20.898;2024-01-30T02:46:47;101779.47;;;0.24;94.53
19520;BME280;9904;52.246;20.898;2024-01-30T02:49:14;101788.22;;;0.27;94.08
19520;BME280;9904;52.246;20.898;2024-01-30T02:51:41;101788.47;;;0.20;94.41
19520;BME280;9904;52.246;20.898;2024-01-30T02:54:07;101785.41;;;0.32;93.68
19520;BME280;9904;52.246;20.898;2024-01-30T02:56:34;101787.31;;;0.28;93.44
19520;BME280;9904;52.246;20.898;2024-01-30T02:59:00;101782.09;;;0.25;93.81
19520;BME280;9904;52.246;20.898;2024-01-30T03:01:27;101780.22;;;0.29;93.88
19520;BME280;9904;52.246;20.898;2024-01-30T03:03:54;101783.72;;;0.29;93.23
19520;BME280;9904;52.246;20.898;2024-01-30T03:06:20;101775.94;;;0.23;93.46
19520;BME280;9904;52.246;20.898;2024-01-30T03:08:49;101778.34;;;0.31;93.38
19520;BME280;9904;52.246;20.898;2024-01-30T03:11:15;101779.28;;;0.30;93.20
19520;BME280;9904;52.246;20.898;2024-01-30T03:13:42;101769.69;;;0.24;93.26
19520;BME280;9904;52.246;20.898;2024-01-30T03:16:08;101777.41;;;0.34;93.20
19520;BME280;9904;52.246;20.898;2024-01-30T03:18:36;101784.84;;;0.22;93.41
19520;BME280;9904;52.246;20.898;2024-01-30T03:21:03;101780.22;;;0.27;93.16
19520;BME280;9904;52.246;20.898;2024-01-30T03:23:29;101780.16;;;0.30;93.02
19520;BME280;9904;52.246;20.898;2024-01-30T03:25:57;101777.63;;;0.26;93.14
19520;BME280;9904;52.246;20.898;2024-01-30T03:28:24;101777.09;;;0.14;93.63
19520;BME280;9904;52.246;20.898;2024-01-30T03:30:51;101779.50;;;0.22;93.38
19520;BME280;9904;52.246;20.898;2024-01-30T03:33:17;101777.72;;;0.23;93.14
19520;BME280;9904;52.246;20.898;2024-01-30T03:35:44;101775.34;;;0.13;93.43
19520;BME280;9904;52.246;20.898;2024-01-30T03:38:11;101768.94;;;0.19;93.38
19520;BME280;9904;52.246;20.898;2024-01-30T03:40:37;101771.72;;;0.16;93.30
19520;BME280;9904;52.246;20.898;2024-01-30T03:43:04;101768.16;;;0.15;93.06
19520;BME280;9904;52.246;20.898;2024-01-30T03:45:32;101767.13;;;0.21;92.75
19520;BME280;9904;52.246;20.898;2024-01-30T03:47:58;101765.56;;;0.14;93.27
19520;BME280;9904;52.246;20.898;2024-01-30T03:50:25;101766.63;;;0.08;93.44
19520;BME280;9904;52.246;20.898;2024-01-30T03:52:51;101761.22;;;0.11;93.41
19520;BME280;9904;52.246;20.898;2024-01-30T03:55:18;101768.66;;;0.00;93.35
19520;BME280;9904;52.246;20.898;2024-01-30T03:57:45;101770.38;;;0.03;93.01
19520;BME280;9904;52.246;20.898;2024-01-30T04:00:11;101764.97;;;0.04;93.24
19520;BME280;9904;52.246;20.898;2024-01-30T04:02:38;101758.78;;;0.04;93.09
19520;BME280;9904;52.246;20.898;2024-01-30T04:05:05;101761.28;;;0.08;93.02
19520;BME280;9904;52.246;20.898;2024-01-30T04:07:32;101756.28;;;-0.03;93.35
19520;BME280;9904;52.246;20.898;2024-01-30T04:09:58;101757.25;;;-0.05;93.68
19520;BME280;9904;52.246;20.898;2024-01-30T04:12:25;101767.97;;;-0.07;93.55
19520;BME280;9904;52.246;20.898;2024-01-30T04:14:51;101759.88;;;-0.04;93.74
19520;BME280;9904;52.246;20.898;2024-01-30T04:17:18;101761.63;;;-0.03;93.31
19520;BME280;9904;52.246;20.898;2024-01-30T04:19:44;101759.00;;;-0.04;93.43
19520;BME280;9904;52.246;20.898;2024-01-30T04:22:11;101769.97;;;-0.15;93.96
19520;BME280;9904;52.246;20.898;2024-01-30T04:24:37;101771.69;;;-0.12;93.88
19520;BME280;9904;52.246;20.898;2024-01-30T04:27:04;101765.50;;;-0.14;93.71
19520;BME280;9904;52.246;20.898;2024-01-30T04:29:30;101767.78;;;-0.01;93.00
19520;BME280;9904;52.246;20.898;2024-01-30T04:31:58;101768.97;;;-0.11;93.21
19520;BME280;9904;52.246;20.898;2024-01-30T04:34:25;101765.38;;;-0.10;93.25
19520;BME280;9904;52.246;20.898;2024-01-30T04:36:51;101770.13;;;-0.20;93.53
19520;BME280;9904;52.246;20.898;2024-01-30T04:39:18;101764.47;;;-0.09;93.36
19520;BME280;9904;52.246;20.898;2024-01-30T04:41:44;101763.94;;;-0.20;93.94
19520;BME280;9904;52.246;20.898;2024-01-30T04:44:11;101767.25;;;-0.13;93.47
19520;BME280;9904;52.246;20.898;2024-01-30T04:46:37;101755.72;;;-0.12;92.90
19520;BME280;9904;52.246;20.898;2024-01-30T04:49:04;101760.31;;;-0.18;93.23
19520;BME280;9904;52.246;20.898;2024-01-30T04:51:31;101755.56;;;-0.08;93.38
19520;BME280;9904;52.246;20.898;2024-01-30T04:53:57;101758.16;;;-0.05;92.82
19520;BME280;9904;52.246;20.898;2024-01-30T04:56:24;101760.75;;;-0.03;92.67
19520;BME280;9904;52.246;20.898;2024-01-30T04:58:51;101755.50;;;-0.06;92.56
19520;BME280;9904;52.246;20.898;2024-01-30T05:01:17;101749.28;;;-0.05;92.45
19520;BME280;9904;52.246;20.898;2024-01-30T05:03:44;101758.09;;;-0.03;92.60
19520;BME280;9904;52.246;20.898;2024-01-30T05:06:11;101758.81;;;0.02;91.84
19520;BME280;9904;52.246;20.898;2024-01-30T05:08:37;101757.91;;;0.03;91.90
19520;BME280;9904;52.246;20.898;2024-01-30T05:11:05;101750.84;;;0.02;91.73
19520;BME280;9904;52.246;20.898;2024-01-30T05:13:32;101759.78;;;-0.01;91.49
19520;BME280;9904;52.246;20.898;2024-01-30T05:16:02;101748.91;;;0.07;91.60
19520;BME280;9904;52.246;20.898;2024-01-30T05:18:29;101757.13;;;-0.01;91.74
19520;BME280;9904;52.246;20.898;2024-01-30T05:20:56;101759.88;;;-0.04;91.49
19520;BME280;9904;52.246;20.898;2024-01-30T05:23:22;101755.84;;;-0.17;92.54
19520;BME280;9904;52.246;20.898;2024-01-30T05:25:49;101757.22;;;-0.04;91.87
19520;BME280;9904;52.246;20.898;2024-01-30T05:28:16;101753.34;;;0.07;91.55
19520;BME280;9904;52.246;20.898;2024-01-30T05:30:42;101754.38;;;0.03;91.50
19520;BME280;9904;52.246;20.898;2024-01-30T05:33:09;101754.19;;;0.09;91.46
19520;BME280;9904;52.246;20.898;2024-01-30T05:35:36;101749.84;;;0.06;91.09
19520;BME280;9904;52.246;20.898;2024-01-30T05:38:03;101754.47;;;-0.01;91.23
19520;BME280;9904;52.246;20.898;2024-01-30T05:40:30;101761.25;;;0.10;90.79
19520;BME280;9904;52.246;20.898;2024-01-30T05:42:57;101762.41;;;0.01;91.33
19520;BME280;9904;52.246;20.898;2024-01-30T05:45:27;101764.13;;;0.04;91.19
19520;BME280;9904;52.246;20.898;2024-01-30T05:47:53;101757.78;;;0.08;90.72
19520;BME280;9904;52.246;20.898;2024-01-30T05:50:20;101755.81;;;0.14;90.53
19520;BME280;9904;52.246;20.898;2024-01-30T05:52:49;101751.53;;;0.09;90.57
19520;BME280;9904;52.246;20.898;2024-01-30T05:55:16;101752.59;;;0.03;90.44
19520;BME280;9904;52.246;20.898;2024-01-30T05:57:42;101753.22;;;0.11;90.11
19520;BME280;9904;52.246;20.898;2024-01-30T06:00:09;101758.63;;;0.08;90.62
19520;BME280;9904;52.246;20.898;2024-01-30T06:02:36;101747.97;;;0.08;90.56
19520;BME280;9904;52.246;20.898;2024-01-30T06:05:03;101754.06;;;0.13;90.27
19520;BME280;9904;52.246;20.898;2024-01-30T06:07:30;101757.91;;;0.03;90.49
19520;BME280;9904;52.246;20.898;2024-01-30T06:10:02;101757.22;;;-0.04;90.86
19520;BME280;9904;52.246;20.898;2024-01-30T06:12:29;101752.84;;;-0.05;90.94
19520;BME280;9904;52.246;20.898;2024-01-30T06:14:56;101746.56;;;-0.04;90.75
19520;BME280;9904;52.246;20.898;2024-01-30T06:17:24;101740.66;;;-0.13;91.06
19520;BME280;9904;52.246;20.898;2024-01-30T06:19:50;101743.22;;;-0.10;91.12
19520;BME280;9904;52.246;20.898;2024-01-30T06:22:17;101753.22;;;-0.19;91.38
19520;BME280;9904;52.246;20.898;2024-01-30T06:24:44;101755.25;;;-0.27;91.84
19520;BME280;9904;52.246;20.898;2024-01-30T06:27:11;101755.91;;;-0.19;91.38
19520;BME280;9904;52.246;20.898;2024-01-30T06:29:38;101755.19;;;-0.25;91.85
19520;BME280;9904;52.246;20.898;2024-01-30T06:32:05;101758.56;;;-0.19;91.87
19520;BME280;9904;52.246;20.898;2024-01-30T06:34:32;101761.94;;;-0.13;91.43
19520;BME280;9904;52.246;20.898;2024-01-30T06:36:59;101757.38;;;-0.08;91.18
19520;BME280;9904;52.246;20.898;2024-01-30T06:39:26;101760.25;;;-0.16;90.96
19520;BME280;9904;52.246;20.898;2024-01-30T06:41:52;101764.59;;;-0.13;91.37
19520;BME280;9904;52.246;20.898;2024-01-30T06:44:19;101762.13;;;-0.20;91.36
19520;BME280;9904;52.246;20.898;2024-01-30T06:46:46;101759.88;;;-0.04;91.11
19520;BME280;9904;52.246;20.898;2024-01-30T06:49:12;101760.94;;;-0.09;90.74
19520;BME280;9904;52.246;20.898;2024-01-30T06:51:39;101767.06;;;-0.06;90.99
19520;BME280;9904;52.246;20.898;2024-01-30T06:54:05;101766.72;;;0.05;90.55
19520;BME280;9904;52.246;20.898;2024-01-30T06:56:32;101763.94;;;0.08;90.44
19520;BME280;9904;52.246;20.898;2024-01-30T06:58:58;101760.03;;;0.20;89.55
19520;BME280;9904;52.246;20.898;2024-01-30T07:01:29;101764.56;;;0.18;89.07
19520;BME280;9904;52.246;20.898;2024-01-30T07:03:57;101762.63;;;0.23;88.84
19520;BME280;9904;52.246;20.898;2024-01-30T07:06:24;101770.19;;;0.37;88.64
19520;BME280;9904;52.246;20.898;2024-01-30T07:08:51;101752.41;;;0.38;87.70
19520;BME280;9904;52.246;20.898;2024-01-30T07:11:21;101763.81;;;0.41;87.90
19520;BME280;9904;52.246;20.898;2024-01-30T07:13:50;101765.72;;;0.38;87.77
19520;BME280;9904;52.246;20.898;2024-01-30T07:16:16;101765.16;;;0.55;86.96
19520;BME280;9904;52.246;20.898;2024-01-30T07:18:44;101759.81;;;0.56;86.57
19520;BME280;9904;52.246;20.898;2024-01-30T07:21:11;101759.63;;;0.61;86.03
19520;BME280;9904;52.246;20.898;2024-01-30T07:23:38;101763.13;;;0.63;86.51
19520;BME280;9904;52.246;20.898;2024-01-30T07:26:08;101768.25;;;0.69;85.94
19520;BME280;9904;52.246;20.898;2024-01-30T07:28:36;101767.13;;;0.76;85.88
19520;BME280;9904;52.246;20.898;2024-01-30T07:31:02;101773.69;;;0.93;85.17
19520;BME280;9904;52.246;20.898;2024-01-30T07:33:29;101767.81;;;1.08;84.02
19520;BME280;9904;52.246;20.898;2024-01-30T07:35:56;101769.66;;;1.06;83.79
19520;BME280;9904;52.246;20.898;2024-01-30T07:38:24;101763.91;;;1.19;83.62
19520;BME280;9904;52.246;20.898;2024-01-30T07:40:50;101764.94;;;1.15;83.52
19520;BME280;9904;52.246;20.898;2024-01-30T07:43:17;101766.03;;;1.34;82.27
19520;BME280;9904;52.246;20.898;2024-01-30T07:45:44;101764.47;;;1.29;82.00
19520;BME280;9904;52.246;20.898;2024-01-30T07:48:11;101764.00;;;1.41;81.95
19520;BME280;9904;52.246;20.898;2024-01-30T07:50:37;101764.84;;;1.43;82.02
19520;BME280;9904;52.246;20.898;2024-01-30T07:53:04;101768.63;;;1.61;81.28
19520;BME280;9904;52.246;20.898;2024-01-30T07:55:31;101766.53;;;1.69;80.85
19520;BME280;9904;52.246;20.898;2024-01-30T07:57:59;101763.81;;;1.71;80.67
19520;BME280;9904;52.246;20.898;2024-01-30T08:00:26;101766.31;;;1.76;80.82
19520;BME280;9904;52.246;20.898;2024-01-30T08:02:54;101769.22;;;1.93;79.89
19520;BME280;9904;52.246;20.898;2024-01-30T08:05:22;101763.13;;;1.89;79.56
19520;BME280;9904;52.246;20.898;2024-01-30T08:07:50;101765.44;;;1.99;79.33
19520;BME280;9904;52.246;20.898;2024-01-30T08:10:17;101764.09;;;2.11;79.29
19520;BME280;9904;52.246;20.898;2024-01-30T08:12:45;101761.28;;;2.14;78.66
19520;BME280;9904;52.246;20.898;2024-01-30T08:15:12;101766.91;;;2.30;77.89
19520;BME280;9904;52.246;20.898;2024-01-30T08:17:39;101754.91;;;2.18;78.16
19520;BME280;9904;52.246;20.898;2024-01-30T08:20:07;101756.16;;;2.31;78.07
19520;BME280;9904;52.246;20.898;2024-01-30T08:22:35;101760.56;;;2.32;78.02
19520;BME280;9904;52.246;20.898;2024-01-30T08:25:02;101755.63;;;2.45;77.58
19520;BME280;9904;52.246;20.898;2024-01-30T08:27:29;101753.06;;;2.64;76.84
19520;BME280;9904;52.246;20.898;2024-01-30T08:29:56;101745.72;;;2.69;76.45
19520;BME280;9904;52.246;20.898;2024-01-30T08:32:22;101751.16;;;2.66;76.55
19520;BME280;9904;52.246;20.898;2024-01-30T08:34:50;101747.72;;;2.64;76.44
19520;BME280;9904;52.246;20.898;2024-01-30T08:37:17;101741.38;;;2.88;75.66
19520;BME280;9904;52.246;20.898;2024-01-30T08:39:44;101751.97;;;3.11;74.98
19520;BME280;9904;52.246;20.898;2024-01-30T08:42:11;101746.59;;;3.91;72.61
19520;BME280;9904;52.246;20.898;2024-01-30T08:44:38;101740.59;;;5.31;68.42
19520;BME280;9904;52.246;20.898;2024-01-30T08:47:05;101753.34;;;8.20;58.93
19520;BME280;9904;52.246;20.898;2024-01-30T08:49:32;101748.53;;;11.89;48.63
19520;BME280;9904;52.246;20.898;2024-01-30T08:51:59;101751.47;;;14.22;41.50
19520;BME280;9904;52.246;20.898;2024-01-30T08:54:26;101757.50;;;15.73;37.11
19520;BME280;9904;52.246;20.898;2024-01-30T08:56:52;101758.88;;;16.24;35.14
19520;BME280;9904;52.246;20.898;2024-01-30T08:59:19;101756.22;;;17.15;33.82
19520;BME280;9904;52.246;20.898;2024-01-30T09:01:46;101757.91;;;18.21;31.42
19520;BME280;9904;52.246;20.898;2024-01-30T09:04:28;101755.44;;;18.52;30.36
19520;BME280;9904;52.246;20.898;2024-01-30T09:06:56;101761.53;;;20.11;28.87
19520;BME280;9904;52.246;20.898;2024-01-30T09:09:22;101758.13;;;19.28;28.72
19520;BME280;9904;52.246;20.898;2024-01-30T09:11:49;101755.47;;;19.68;28.04
19520;BME280;9904;52.246;20.898;2024-01-30T09:14:16;101755.31;;;18.79;28.53
19520;BME280;9904;52.246;20.898;2024-01-30T09:16:42;101755.19;;;19.22;28.05
19520;BME280;9904;52.246;20.898;2024-01-30T09:19:09;101752.22;;;18.14;29.10
19520;BME280;9904;52.246;20.898;2024-01-30T09:21:36;101753.38;;;18.03;29.37
19520;BME280;9904;52.246;20.898;2024-01-30T09:24:03;101745.59;;;18.25;29.14
19520;BME280;9904;52.246;20.898;2024-01-30T09:26:32;101755.38;;;18.28;28.97
19520;BME280;9904;52.246;20.898;2024-01-30T09:28:59;101744.38;;;19.04;27.74
19520;BME280;9904;52.246;20.898;2024-01-30T09:31:25;101734.03;;;18.73;27.97
19520;BME280;9904;52.246;20.898;2024-01-30T09:33:52;101743.69;;;18.93;27.94
19520;BME280;9904;52.246;20.898;2024-01-30T09:36:20;101746.28;;;18.95;27.59
19520;BME280;9904;52.246;20.898;2024-01-30T09:38:47;101737.13;;;18.78;28.27
19520;BME280;9904;52.246;20.898;2024-01-30T09:41:14;101740.31;;;18.32;28.72
19520;BME280;9904;52.246;20.898;2024-01-30T09:43:47;101727.00;;;16.97;29.85
19520;BME280;9904;52.246;20.898;2024-01-30T09:46:17;101739.38;;;15.72;31.31
19520;BME280;9904;52.246;20.898;2024-01-30T09:48:47;101722.66;;;13.05;35.95
19520;BME280;9904;52.246;20.898;2024-01-30T09:51:15;101741.16;;;12.02;38.68
19520;BME280;9904;52.246;20.898;2024-01-30T09:53:43;101732.72;;;10.66;41.17
19520;BME280;9904;52.246;20.898;2024-01-30T09:56:13;101729.13;;;10.04;43.46
19520;BME280;9904;52.246;20.898;2024-01-30T09:58:40;101730.50;;;9.47;45.00
19520;BME280;9904;52.246;20.898;2024-01-30T10:01:06;101724.88;;;9.37;45.41
19520;BME280;9904;52.246;20.898;2024-01-30T10:03:33;101723.16;;;9.23;46.13
19520;BME280;9904;52.246;20.898;2024-01-30T10:06:01;101717.00;;;9.21;46.39
19520;BME280;9904;52.246;20.898;2024-01-30T10:08:27;101718.50;;;9.12;46.63
19520;BME280;9904;52.246;20.898;2024-01-30T10:10:56;101713.53;;;9.19;46.47
19520;BME280;9904;52.246;20.898;2024-01-30T10:13:25;101719.94;;;9.31;46.03
19520;BME280;9904;52.246;20.898;2024-01-30T10:15:52;101710.72;;;9.33;46.08
19520;BME280;9904;52.246;20.898;2024-01-30T10:18:20;101711.69;;;9.32;45.94
19520;BME280;9904;52.246;20.898;2024-01-30T10:20:46;101705.75;;;9.27;46.09
19520;BME280;9904;52.246;20.898;2024-01-30T10:23:13;101700.88;;;9.45;45.74
19520;BME280;9904;52.246;20.898;2024-01-30T10:25:40;101706.28;;;9.45;46.09
19520;BME280;9904;52.246;20.898;2024-01-30T10:28:06;101699.59;;;9.25;46.72
19520;BME280;9904;52.246;20.898;2024-01-30T10:30:33;101692.44;;;9.24;46.66
19520;BME280;9904;52.246;20.898;2024-01-30T10:33:00;101686.94;;;9.39;46.35
19520;BME280;9904;52.246;20.898;2024-01-30T10:35:27;101690.28;;;9.29;46.85
19520;BME280;9904;52.246;20.898;2024-01-30T10:37:57;101688.09;;;9.60;46.32
19520;BME280;9904;52.246;20.898;2024-01-30T10:40:28;101681.38;;;9.79;45.52
19520;BME280;9904;52.246;20.898;2024-01-30T10:42:55;101680.22;;;9.57;45.89
19520;BME280;9904;52.246;20.898;2024-01-30T10:45:25;101676.97;;;9.52;46.15
19520;BME280;9904;52.246;20.898;2024-01-30T10:47:55;101683.72;;;9.96;45.30
19520;BME280;9904;52.246;20.898;2024-01-30T10:50:25;101679.03;;;9.48;45.59
19520;BME280;9904;52.246;20.898;2024-01-30T10:52:54;101674.38;;;9.63;45.42
19520;BME280;9904;52.246;20.898;2024-01-30T10:55:22;101684.41;;;9.74;45.54
19520;BME280;9904;52.246;20.898;2024-01-30T10:57:50;101664.50;;;9.75;45.06
19520;BME280;9904;52.246;20.898;2024-01-30T11:00:17;101665.38;;;9.76;45.62
19520;BME280;9904;52.246;20.898;2024-01-30T11:02:49;101666.09;;;9.41;46.29
19520;BME280;9904;52.246;20.898;2024-01-30T11:05:23;101653.13;;;9.20;46.74
19520;BME280;9904;52.246;20.898;2024-01-30T11:07:54;101659.16;;;9.36;46.67
19520;BME280;9904;52.246;20.898;2024-01-30T11:10:20;101658.31;;;9.23;46.97
19520;BME280;9904;52.246;20.898;2024-01-30T11:12:47;101651.19;;;9.09;47.50
19520;BME280;9904;52.246;20.898;2024-01-30T11:15:16;101646.41;;;9.26;46.34
19520;BME280;9904;52.246;20.898;2024-01-30T11:20:22;101647.28;;;9.26;47.08
19520;BME280;9904;52.246;20.898;2024-01-30T11:22:52;101644.25;;;9.31;47.05
19520;BME280;9904;52.246;20.898;2024-01-30T11:25:20;101639.69;;;9.44;47.13
19520;BME280;9904;52.246;20.898;2024-01-30T11:27:50;101635.38;;;9.42;47.24
19520;BME280;9904;52.246;20.898;2024-01-30T11:33:10;101634.94;;;9.22;47.40
19520;BME280;9904;52.246;20.898;2024-01-30T11:35:44;101628.69;;;9.09;47.71
19520;BME280;9904;52.246;20.898;2024-01-30T11:38:13;101626.00;;;9.09;47.77
19520;BME280;9904;52.246;20.898;2024-01-30T11:40:40;101633.25;;;8.95;47.97
19520;BME280;9904;52.246;20.898;2024-01-30T11:43:08;101627.31;;;8.90;48.34
19520;BME280;9904;52.246;20.898;2024-01-30T11:45:36;101622.63;;;8.92;48.47
19520;BME280;9904;52.246;20.898;2024-01-30T11:48:03;101621.78;;;8.92;48.35
19520;BME280;9904;52.246;20.898;2024-01-30T11:50:33;101614.53;;;8.92;48.21
19520;BME280;9904;52.246;20.898;2024-01-30T11:53:00;101624.59;;;8.90;48.19
19520;BME280;9904;52.246;20.898;2024-01-30T11:55:29;101611.53;;;8.71;48.60
19520;BME280;9904;52.246;20.898;2024-01-30T11:58:00;101612.34;;;8.59;49.08
19520;BME280;9904;52.246;20.898;2024-01-30T12:00:27;101612.72;;;8.80;48.44
19520;BME280;9904;52.246;20.898;2024-01-30T12:02:55;101611.41;;;8.85;47.80
19520;BME280;9904;52.246;20.898;2024-01-30T12:05:23;101614.00;;;8.87;48.24
19520;BME280;9904;52.246;20.898;2024-01-30T12:07:50;101611.31;;;9.00;47.94
19520;BME280;9904;52.246;20.898;2024-01-30T12:10:17;101605.59;;;8.92;48.03
19520;BME280;9904;52.246;20.898;2024-01-30T12:12:49;101604.72;;;8.78;48.55
19520;BME280;9904;52.246;20.898;2024-01-30T12:15:18;101605.22;;;8.57;48.91
19520;BME280;9904;52.246;20.898;2024-01-30T12:17:44;101607.19;;;8.81;48.37
19520;BME280;9904;52.246;20.898;2024-01-30T12:20:13;101603.81;;;8.65;48.93
19520;BME280;9904;52.246;20.898;2024-01-30T12:22:44;101599.84;;;8.83;48.48
19520;BME280;9904;52.246;20.898;2024-01-30T12:25:13;101610.03;;;8.93;47.90
19520;BME280;9904;52.246;20.898;2024-01-30T12:27:45;101598.13;;;8.82;48.47
19520;BME280;9904;52.246;20.898;2024-01-30T12:30:13;101600.16;;;8.79;48.45
19520;BME280;9904;52.246;20.898;2024-01-30T12:32:44;101590.34;;;8.78;48.69
19520;BME280;9904;52.246;20.898;2024-01-30T12:35:12;101600.19;;;8.92;48.79
19520;BME280;9904;52.246;20.898;2024-01-30T12:37:40;101595.66;;;8.79;48.25
19520;BME280;9904;52.246;20.898;2024-01-30T12:40:08;101590.88;;;8.96;47.81
19520;BME280;9904;52.246;20.898;2024-01-30T12:42:36;101589.59;;;9.14;47.09
19520;BME280;9904;52.246;20.898;2024-01-30T12:45:04;101590.13;;;9.07;47.96
19520;BME280;9904;52.246;20.898;2024-01-30T12:47:31;101583.53;;;9.11;48.30
19520;BME280;9904;52.246;20.898;2024-01-30T12:49:58;101584.16;;;9.27;47.32
19520;BME280;9904;52.246;20.898;2024-01-30T12:52:25;101579.41;;;9.31;46.73
19520;BME280;9904;52.246;20.898;2024-01-30T12:54:52;101577.59;;;9.06;48.02
19520;BME280;9904;52.246;20.898;2024-01-30T12:57:19;101580.63;;;9.01;48.29
19520;BME280;9904;52.246;20.898;2024-01-30T12:59:46;101580.19;;;8.94;48.57
19520;BME280;9904;52.246;20.898;2024-01-30T13:02:13;101577.28;;;8.97;48.03
19520;BME280;9904;52.246;20.898;2024-01-30T13:04:42;101572.41;;;9.02;48.22